Terminal Aerodrome Forecast
Issued by NWS Albany, NY

Home | Current Version | Previous Version | Text Only | Print | Product List | Glossary On
Versions: 1 2 3 4 5 6 7 8 9 10 11 12 13 14 15 16 17 18 19 20 21 22 23 24 25 26
000
FTUS41 KALY 261955 AAB
TAFALB
TAF AMD
KALB 261955Z 2620/2718 34007KT 4SM -RA BR SCT006 OVC015
      TEMPO 2620/2621 2SM -RA BR BKN006
     FM262100 30009KT P6SM VCSH OVC020
     FM270400 32005KT P6SM OVC025
     FM271200 34005KT P6SM BKN025 OVC035
     FM271600 VRB03KT P6SM BKN035=

USA.gov is the U.S. government's official web portal to all federal, state and local government web resources and services.